createdAt,value
2023-01-07T00:01:48.575Z,97216.84
2023-01-07T00:04:15.839Z,97427.34
2023-01-07T00:06:43.488Z,97322.81
2023-01-07T00:09:16.619Z,97628.56
2023-01-07T00:11:43.405Z,97775.41
2023-01-07T00:14:11.621Z,96897.38
2023-01-07T00:16:38.301Z,97991.09
2023-01-07T00:19:05.970Z,97847.75
2023-01-07T00:21:35.913Z,96915.75
2023-01-07T00:24:06.288Z,97579.03
2023-01-07T00:26:35.184Z,97353.03
2023-01-07T00:29:02.035Z,96976.06
2023-01-07T00:31:33.829Z,97398.63
2023-01-07T00:34:00.542Z,97143.13
2023-01-07T00:36:31.674Z,97574.19
2023-01-07T00:39:13.867Z,97472.38
2023-01-07T00:41:40.674Z,97328.09
2023-01-07T00:44:10.525Z,97320.56
2023-01-07T00:46:37.282Z,97177.88
2023-01-07T00:49:07.878Z,96864.53
2023-01-07T00:51:37.011Z,97020.66
2023-01-07T00:54:03.720Z,97610.22
2023-01-07T00:56:30.442Z,96833.78
2023-01-07T00:58:57.185Z,97095.94
2023-01-07T01:01:23.880Z,97480.34
2023-01-07T01:03:50.683Z,97270.38
2023-01-07T01:06:17.350Z,96847.75
2023-01-07T01:08:47.243Z,97569.47
2023-01-07T01:11:15.307Z,97611.13
2023-01-07T01:13:42.286Z,97477.13
2023-01-07T01:16:10.850Z,97316.03
2023-01-07T01:18:40.559Z,97021.66
2023-01-07T01:21:09.135Z,97082.72
2023-01-07T01:23:35.838Z,97567.44
2023-01-07T01:26:06.773Z,97288.34
2023-01-07T01:28:33.805Z,97070.75
2023-01-07T01:31:03.667Z,97370.34
2023-01-07T01:33:30.608Z,97648.41
2023-01-07T01:35:57.297Z,97488.03
2023-01-07T01:38:24.052Z,97645.16
2023-01-07T01:40:50.715Z,97053.03
2023-01-07T01:43:40.370Z,97243.81
2023-01-07T01:46:17.164Z,97637.63
2023-01-07T01:48:51.636Z,97425.50
2023-01-07T01:51:19.555Z,97430.25
2023-01-07T01:53:46.314Z,97309.38
2023-01-07T01:56:18.198Z,97756.84
2023-01-07T01:59:05.566Z,97808.19
2023-01-07T02:01:37.017Z,97570.13
2023-01-07T02:04:21.559Z,97034.13
2023-01-07T02:06:52.610Z,97319.81
2023-01-07T02:09:19.359Z,97485.94
2023-01-07T02:11:52.184Z,97503.25
2023-01-07T02:15:06.221Z,97317.00
2023-01-07T02:17:53.907Z,97910.41
2023-01-07T02:20:44.786Z,97936.56
2023-01-07T02:23:31.581Z,97937.38
2023-01-07T02:26:04.157Z,97934.81
2023-01-07T02:28:36.644Z,97706.59
2023-01-07T02:31:41.481Z,97929.72
2023-01-07T02:41:04.808Z,97802.03
2023-01-07T02:55:39.458Z,97932.28
2023-01-07T03:21:10.065Z,97731.88
2023-01-07T03:43:12.137Z,97862.50
2023-01-07T04:13:01.948Z,97827.75
2023-01-07T04:15:28.556Z,97478.84
2023-01-07T04:21:16.374Z,97349.56
2023-01-07T04:24:17.439Z,97814.19
2023-01-07T04:30:41.373Z,97427.69
2023-01-07T04:33:27.320Z,97803.28
2023-01-07T04:36:35.358Z,97567.28
2023-01-07T04:39:21.173Z,97512.28
2023-01-07T04:50:18.328Z,97796.34
2023-01-07T05:42:12.078Z,97270.91
2023-01-07T06:03:04.652Z,97252.09
2023-01-07T06:25:03.820Z,97731.72
2023-01-07T06:45:57.771Z,97168.16
2023-01-07T06:59:22.769Z,97706.22
2023-01-07T07:02:19.186Z,97280.19
2023-01-07T07:07:26.485Z,97647.81
2023-01-07T07:09:53.749Z,97623.66
2023-01-07T07:12:21.034Z,97700.34
2023-01-07T07:14:48.314Z,97560.91
2023-01-07T07:17:18.284Z,97576.75
2023-01-07T07:19:45.699Z,97532.38
2023-01-07T07:22:12.564Z,97508.13
2023-01-07T07:24:39.582Z,97696.88
2023-01-07T07:27:08.124Z,97594.19
2023-01-07T07:29:34.685Z,97577.69
2023-01-07T07:32:02.151Z,97601.16
2023-01-07T07:34:29.580Z,97657.72
2023-01-07T07:36:57.226Z,97668.97
2023-01-07T07:39:24.832Z,97621.84
2023-01-07T07:41:52.356Z,97560.53
2023-01-07T07:54:44.895Z,97272.25
2023-01-07T07:57:11.400Z,97666.84
2023-01-07T07:59:37.921Z,97472.47
2023-01-07T08:02:04.483Z,97556.75
2023-01-07T08:04:34.091Z,97621.78
2023-01-07T08:07:01.543Z,97532.41
2023-01-07T08:09:28.125Z,97643.97
2023-01-07T08:11:54.804Z,97648.25
2023-01-07T08:14:21.320Z,97515.41
2023-01-07T08:16:47.846Z,97595.34
2023-01-07T08:19:15.267Z,97584.81
2023-01-07T08:21:41.876Z,97585.09
2023-01-07T08:24:08.563Z,97603.44
2023-01-07T08:26:35.046Z,97614.13
2023-01-07T08:29:01.646Z,97569.47
2023-01-07T08:31:28.214Z,97576.50
2023-01-07T08:33:54.851Z,97547.28
2023-01-07T08:36:23.538Z,97605.56
2023-01-07T08:38:51.793Z,97602.84
2023-01-07T08:41:19.032Z,97587.31
2023-01-07T08:43:45.634Z,97589.28
2023-01-07T08:46:12.135Z,97561.38
2023-01-07T08:48:40.226Z,97590.69
2023-01-07T08:51:06.987Z,97529.47
2023-01-07T08:53:33.798Z,97534.72
2023-01-07T08:56:00.315Z,97581.75
2023-01-07T08:58:26.867Z,97538.09
2023-01-07T09:00:53.502Z,97581.69
2023-01-07T09:03:20.196Z,97575.69
2023-01-07T09:05:47.013Z,97571.63
2023-01-07T09:08:13.702Z,97576.59
2023-01-07T09:10:40.213Z,97570.66
2023-01-07T09:13:06.924Z,97581.19
2023-01-07T09:15:33.502Z,97568.22
2023-01-07T09:18:00.048Z,97541.28
2023-01-07T09:20:26.554Z,97579.56
2023-01-07T09:22:53.105Z,97566.56
2023-01-07T09:25:19.617Z,97596.25
2023-01-07T09:27:46.167Z,97503.16
2023-01-07T09:30:13.039Z,97562.19
2023-01-07T09:32:39.698Z,97501.31
2023-01-07T09:35:06.812Z,97582.34
2023-01-07T09:37:33.377Z,97545.00
2023-01-07T09:40:01.273Z,97537.13
2023-01-07T09:42:34.189Z,97586.88
2023-01-07T09:45:14.435Z,97586.88
2023-01-07T09:47:43.329Z,97474.81
2023-01-07T09:50:44.907Z,97565.06
2023-01-07T09:53:18.881Z,97513.09
2023-01-07T09:56:11.244Z,97487.94
2023-01-07T09:58:31.896Z,97541.78
2023-01-07T10:01:10.580Z,97583.50
2023-01-07T10:03:50.588Z,97575.84
2023-01-07T10:06:41.974Z,97569.88
2023-01-07T10:09:32.434Z,97570.75
2023-01-07T10:12:04.968Z,97563.09
2023-01-07T10:14:44.405Z,97453.69
2023-01-07T10:17:49.794Z,97564.78
2023-01-07T10:20:40.840Z,97549.47
2023-01-07T10:23:13.034Z,97550.25
2023-01-07T10:25:50.770Z,97557.06
2023-01-07T10:28:25.858Z,97278.53
2023-01-07T10:30:52.533Z,97509.25
2023-01-07T10:33:26.797Z,97544.31
2023-01-07T10:36:08.726Z,97533.28
2023-01-07T10:38:37.386Z,97439.19
2023-01-07T10:41:08.241Z,97398.66
2023-01-07T10:43:45.697Z,97418.31
2023-01-07T10:46:15.165Z,97527.28
2023-01-07T10:48:44.809Z,97519.66
2023-01-07T10:51:20.732Z,97511.94
2023-01-07T10:54:12.203Z,97517.09
2023-01-07T10:56:43.423Z,97428.63
2023-01-07T10:59:15.053Z,97499.19
2023-01-07T11:01:41.868Z,97445.03
2023-01-07T11:04:12.938Z,97442.00
2023-01-07T11:07:04.791Z,97488.19
2023-01-07T11:09:42.320Z,97292.03
2023-01-07T11:12:37.809Z,97336.81
2023-01-07T11:15:13.457Z,97446.94
2023-01-07T11:17:46.707Z,97475.22
2023-01-07T11:20:13.249Z,97465.28
2023-01-07T11:22:39.841Z,97429.88
2023-01-07T11:25:27.364Z,97382.78
2023-01-07T11:27:53.897Z,97210.63
2023-01-07T11:30:26.285Z,97325.09
2023-01-07T11:33:05.928Z,97415.38
2023-01-07T11:35:32.606Z,97408.28
2023-01-07T11:37:59.325Z,97325.31
2023-01-07T11:40:30.623Z,97401.75
2023-01-07T11:43:24.092Z,97427.50
2023-01-07T11:46:21.371Z,97369.16
2023-01-07T11:49:00.880Z,97290.88
2023-01-07T11:51:27.597Z,97255.84
2023-01-07T11:53:56.809Z,97347.69
2023-01-07T11:56:24.247Z,97394.69
2023-01-07T11:58:52.503Z,97380.69
2023-01-07T12:01:20.560Z,97366.94
2023-01-07T12:03:53.153Z,97386.16
2023-01-07T12:06:25.481Z,97335.00
2023-01-07T12:09:01.390Z,97307.31
2023-01-07T12:15:41.953Z,97244.75
2023-01-07T12:18:11.876Z,97369.19
2023-01-07T12:20:38.613Z,97362.41
2023-01-07T12:23:17.901Z,97360.72
2023-01-07T12:25:50.569Z,97360.72
2023-01-07T12:28:41.198Z,97334.59
2023-01-07T12:31:20.577Z,97333.84
2023-01-07T12:33:57.089Z,97260.13
2023-01-07T12:36:32.337Z,97249.84
2023-01-07T12:38:59.331Z,97303.59
2023-01-07T12:41:27.675Z,97211.91
2023-01-07T12:44:03.106Z,97262.06
2023-01-07T12:46:40.752Z,97320.28
2023-01-07T12:49:15.710Z,97309.78
2023-01-07T12:52:20.886Z,97234.41
2023-01-07T12:54:56.496Z,97287.53
2023-01-07T12:57:30.732Z,97249.34
2023-01-07T13:00:24.539Z,97218.16
2023-01-07T13:02:58.405Z,97302.25
2023-01-07T13:05:38.461Z,97252.88
2023-01-07T13:08:23.228Z,97332.69
2023-01-07T13:10:53.176Z,97271.19
2023-01-07T13:13:26.172Z,97301.47
2023-01-07T13:15:53.237Z,97217.44
2023-01-07T13:18:20.840Z,97296.28
2023-01-07T13:21:05.480Z,97208.72
2023-01-07T13:23:50.398Z,97317.38
2023-01-07T13:26:25.350Z,97291.13
2023-01-07T13:28:51.748Z,97327.56
2023-01-07T13:31:37.033Z,97234.00
2023-01-07T13:34:20.156Z,97278.31
2023-01-07T13:36:49.577Z,97313.06
2023-01-07T13:39:28.207Z,97317.31
2023-01-07T13:41:57.707Z,97325.84
2023-01-07T13:44:33.030Z,97316.53
2023-01-07T13:46:59.585Z,97302.66
2023-01-07T13:49:30.443Z,97254.78
2023-01-07T13:52:04.805Z,97209.19
2023-01-07T13:54:52.773Z,97314.78
2023-01-07T13:57:31.531Z,97317.31
2023-01-07T13:59:59.218Z,97254.19
2023-01-07T14:02:26.806Z,97253.38
2023-01-07T14:05:26.089Z,97300.41
2023-01-07T14:07:57.815Z,97212.81
2023-01-07T14:10:32.565Z,97234.53
2023-01-07T14:13:05.107Z,97299.59
2023-01-07T14:15:56.223Z,97287.72
2023-01-07T14:18:37.286Z,97221.78
2023-01-07T14:21:17.313Z,97205.31
2023-01-07T14:23:53.456Z,97300.41
2023-01-07T14:26:26.044Z,97287.66
2023-01-07T14:29:14.975Z,97176.72
2023-01-07T14:31:41.489Z,97021.78
2023-01-07T14:34:15.950Z,97256.28
2023-01-07T14:37:01.608Z,97296.13
2023-01-07T14:39:33.153Z,97215.28
2023-01-07T14:42:18.457Z,97291.84
2023-01-07T14:44:48.731Z,97285.59
2023-01-07T14:47:36.081Z,97155.84
2023-01-07T14:50:50.323Z,97292.66
2023-01-07T14:53:35.141Z,97202.34
2023-01-07T14:56:07.619Z,97287.56
2023-01-07T14:58:52.966Z,97296.09
2023-01-07T15:01:31.726Z,97289.25
2023-01-07T15:04:36.006Z,97289.25
2023-01-07T15:07:02.578Z,97240.69
2023-01-07T15:09:59.232Z,97180.06
2023-01-07T15:12:46.446Z,97205.94
2023-01-07T15:15:41.831Z,97294.34
2023-01-07T15:18:09.356Z,97159.31
2023-01-07T15:21:11.382Z,97157.56
2023-01-07T15:23:41.157Z,97295.25
2023-01-07T15:26:28.900Z,97301.25
2023-01-07T15:28:58.365Z,97299.53
2023-01-07T15:31:39.956Z,97209.34
2023-01-07T15:34:06.362Z,97297.88
2023-01-07T15:36:33.119Z,97208.59
2023-01-07T15:39:01.944Z,97289.97
2023-01-07T15:41:35.845Z,97265.78
2023-01-07T15:44:06.620Z,97144.63
2023-01-07T15:46:33.436Z,97258.09
2023-01-07T15:49:09.440Z,97166.50
2023-01-07T15:51:39.573Z,97227.38
2023-01-07T15:54:09.167Z,97248.06
2023-01-07T15:56:35.694Z,97211.88
2023-01-07T15:59:07.143Z,97163.50
2023-01-07T16:01:33.830Z,97209.22
2023-01-07T16:04:00.358Z,97182.28
2023-01-07T16:06:33.063Z,97145.22
2023-01-07T16:09:01.489Z,97178.03
2023-01-07T16:11:29.464Z,97271.19
2023-01-07T16:13:59.790Z,97087.38
2023-01-07T16:16:27.247Z,97117.63
2023-01-07T16:19:03.469Z,97185.41
2023-01-07T16:21:37.924Z,97129.97
2023-01-07T16:24:04.836Z,97023.28
2023-01-07T16:26:43.349Z,97215.06
2023-01-07T16:29:20.399Z,97250.22
2023-01-07T16:31:47.076Z,97193.66
2023-01-07T16:34:18.812Z,97162.53
2023-01-07T16:36:45.391Z,97161.56
2023-01-07T16:39:22.233Z,97177.25
2023-01-07T16:41:48.888Z,97239.66
2023-01-07T16:44:46.565Z,97262.13
2023-01-07T16:47:24.059Z,97110.44
2023-01-07T16:49:56.206Z,97115.44
2023-01-07T16:52:25.808Z,97191.06
2023-01-07T16:54:52.475Z,97186.59
2023-01-07T16:57:40.184Z,97020.38
2023-01-07T17:00:17.076Z,97138.09
2023-01-07T17:02:55.289Z,97206.53
2023-01-07T17:05:26.890Z,97227.25
2023-01-07T17:07:54.217Z,97270.69
2023-01-07T17:10:26.278Z,97222.25
2023-01-07T17:13:06.942Z,97114.66
2023-01-07T17:15:34.806Z,97261.28
2023-01-07T17:18:14.534Z,97265.56
2023-01-07T17:20:54.201Z,97161.56
2023-01-07T17:23:31.443Z,97199.06
2023-01-07T17:25:57.924Z,97271.44
2023-01-07T17:28:25.607Z,97261.81
2023-01-07T17:30:52.248Z,97164.06
2023-01-07T17:33:19.908Z,97262.66
2023-01-07T17:35:46.790Z,97197.94
2023-01-07T17:38:14.800Z,97236.91
2023-01-07T17:40:42.085Z,97128.66
2023-01-07T17:43:33.651Z,97219.63
2023-01-07T17:46:12.800Z,97177.66
2023-01-07T17:48:39.482Z,97182.34
2023-01-07T17:51:07.264Z,97181.28
2023-01-07T17:53:36.649Z,97255.91
2023-01-07T17:56:03.335Z,97254.13
2023-01-07T17:58:34.399Z,97238.59
2023-01-07T18:01:08.490Z,97167.69
2023-01-07T18:03:35.271Z,97223.78
2023-01-07T18:06:02.010Z,97245.25
2023-01-07T18:08:28.660Z,97217.81
2023-01-07T18:11:14.075Z,97229.28
2023-01-07T18:13:41.275Z,97181.59
2023-01-07T18:16:10.986Z,97139.16
2023-01-07T18:18:37.580Z,97114.75
2023-01-07T18:21:04.253Z,97154.78
2023-01-07T18:23:30.946Z,97119.31
2023-01-07T18:25:57.443Z,97173.03
2023-01-07T18:28:23.984Z,97155.69
2023-01-07T18:30:50.605Z,97164.25
2023-01-07T18:33:17.193Z,97129.03
2023-01-07T18:35:43.724Z,97242.22
2023-01-07T18:38:15.414Z,97235.38
2023-01-07T18:40:42.411Z,97145.19
2023-01-07T18:43:15.059Z,97223.25
2023-01-07T18:45:43.120Z,97219.63
2023-01-07T18:48:10.491Z,97233.59
2023-01-07T18:50:40.516Z,97201.63
2023-01-07T18:53:07.070Z,97236.75
2023-01-07T18:55:33.605Z,97162.75
2023-01-07T18:58:00.163Z,97152.09
2023-01-07T19:00:26.764Z,97240.75
2023-01-07T19:02:53.350Z,97142.69
2023-01-07T19:05:19.894Z,97249.91
2023-01-07T19:07:46.481Z,97210.16
2023-01-07T19:10:13.059Z,97192.72
2023-01-07T19:12:39.696Z,97172.53
2023-01-07T19:15:06.799Z,97225.06
2023-01-07T19:17:33.833Z,97244.63
2023-01-07T19:20:00.414Z,97190.84
2023-01-07T19:22:26.959Z,97180.41
2023-01-07T19:24:54.660Z,97249.50
2023-01-07T19:27:21.307Z,97237.03
2023-01-07T19:29:47.889Z,97230.53
2023-01-07T19:32:14.451Z,97099.78
2023-01-07T19:34:40.991Z,97215.00
2023-01-07T19:37:07.584Z,97260.09
2023-01-07T19:39:34.123Z,97235.44
2023-01-07T19:42:00.668Z,97257.19
2023-01-07T19:44:27.180Z,97173.25
2023-01-07T19:46:53.778Z,97196.72
2023-01-07T19:49:20.321Z,97209.97
2023-01-07T19:51:46.885Z,97229.41
2023-01-07T19:54:16.085Z,97277.47
2023-01-07T19:56:43.790Z,97188.16
2023-01-07T19:59:10.816Z,97252.59
2023-01-07T20:01:38.914Z,97224.81
2023-01-07T20:04:07.146Z,97119.31
2023-01-07T20:06:35.534Z,97142.63
2023-01-07T20:09:07.886Z,97063.72
2023-01-07T20:11:34.383Z,97175.44
2023-01-07T20:14:00.880Z,97137.97
2023-01-07T20:16:28.148Z,97193.56
2023-01-07T20:18:55.078Z,97247.31
2023-01-07T20:21:23.293Z,97219.72
2023-01-07T20:23:49.921Z,97195.69
2023-01-07T20:26:21.326Z,97137.66
2023-01-07T20:28:47.971Z,97205.84
2023-01-07T20:31:15.645Z,96963.03
2023-01-07T20:33:42.520Z,97130.81
2023-01-07T20:36:13.784Z,97240.91
2023-01-07T20:38:40.856Z,97158.53
2023-01-07T20:41:08.147Z,97203.78
2023-01-07T20:43:35.447Z,97143.94
2023-01-07T20:46:03.192Z,97227.03
2023-01-07T20:48:29.788Z,97183.63
2023-01-07T20:50:56.370Z,97136.09
2023-01-07T20:53:23.257Z,97186.50
2023-01-07T20:55:56.490Z,97099.31
2023-01-07T20:58:23.009Z,97167.03
2023-01-07T21:00:49.596Z,97134.78
2023-01-07T21:03:16.299Z,97060.56
2023-01-07T21:05:43.477Z,97198.16
2023-01-07T21:08:10.211Z,97136.78
2023-01-07T21:10:37.041Z,97055.22
2023-01-07T21:13:04.596Z,97104.78
2023-01-07T21:15:31.276Z,97145.59
2023-01-07T21:17:57.845Z,97135.28
2023-01-07T21:20:24.363Z,97063.41
2023-01-07T21:22:50.913Z,97091.84
2023-01-07T21:25:17.513Z,97091.63
2023-01-07T21:27:44.087Z,97111.69
2023-01-07T21:30:16.510Z,97198.41
2023-01-07T21:32:43.193Z,97118.66
2023-01-07T21:35:10.752Z,97087.41
2023-01-07T21:37:37.624Z,97121.25
2023-01-07T21:40:05.007Z,97145.41
2023-01-07T21:42:31.538Z,97037.34
2023-01-07T21:44:58.115Z,97094.94
2023-01-07T21:47:24.743Z,97118.56
2023-01-07T21:49:51.643Z,96938.47
2023-01-07T21:52:19.123Z,97007.94
2023-01-07T21:54:45.745Z,97207.75
2023-01-07T21:57:12.430Z,97120.31
2023-01-07T21:59:39.018Z,97024.88
2023-01-07T22:02:05.843Z,97141.19
2023-01-07T22:04:32.478Z,97071.00
2023-01-07T22:06:59.080Z,97068.53
2023-01-07T22:09:25.773Z,96971.38
2023-01-07T22:11:52.413Z,97098.97
2023-01-07T22:14:19.311Z,97136.16
2023-01-07T22:16:48.202Z,96981.03
2023-01-07T22:19:15.627Z,97200.06
2023-01-07T22:21:44.799Z,97196.38
2023-01-07T22:24:11.377Z,96916.34
2023-01-07T22:26:38.086Z,97143.72
2023-01-07T22:29:06.713Z,97040.09
2023-01-07T22:31:36.485Z,97017.59
2023-01-07T22:34:04.170Z,96994.09
2023-01-07T22:36:36.601Z,97192.38
2023-01-07T22:39:09.879Z,97105.94
2023-01-07T22:41:36.395Z,97072.09
2023-01-07T22:44:05.180Z,97034.91
2023-01-07T22:46:31.875Z,97071.94
2023-01-07T22:48:58.384Z,97085.84
2023-01-07T22:51:29.760Z,96987.09
2023-01-07T22:53:56.764Z,97110.31
2023-01-07T22:56:23.526Z,97148.19
2023-01-07T22:58:50.133Z,97084.28
2023-01-07T23:01:17.045Z,97090.31
2023-01-07T23:03:44.087Z,97055.13
2023-01-07T23:06:12.819Z,97036.59
2023-01-07T23:08:39.488Z,96962.97
2023-01-07T23:11:06.276Z,97102.09
2023-01-07T23:13:32.949Z,96881.81
2023-01-07T23:16:05.684Z,96890.97
2023-01-07T23:18:32.362Z,96928.09
2023-01-07T23:20:58.980Z,97058.13
2023-01-07T23:23:25.567Z,97027.09
2023-01-07T23:25:52.196Z,97056.66
2023-01-07T23:28:18.994Z,96967.38
2023-01-07T23:30:45.570Z,97129.28
2023-01-07T23:33:12.224Z,97082.53
2023-01-07T23:35:38.838Z,97109.41
2023-01-07T23:38:05.481Z,97133.75
2023-01-07T23:40:32.133Z,97094.78
2023-01-07T23:42:58.699Z,97087.13
2023-01-07T23:45:25.282Z,96954.91
2023-01-07T23:47:51.843Z,97026.78
2023-01-07T23:50:18.463Z,97061.41
2023-01-07T23:52:44.994Z,96995.84
2023-01-07T23:55:11.597Z,97004.41
2023-01-07T23:57:38.164Z,97038.22
